sensor_id;sensor_type;location;lat;lon;timestamp;temperature;humidity
36652;DHT22;53334;51.976;20.144;2022-09-29T00:01:59;26.20;43.70
36652;DHT22;53334;51.976;20.144;2022-09-29T00:04:33;26.20;43.70
36652;DHT22;53334;51.976;20.144;2022-09-29T00:07:07;26.20;43.60
36652;DHT22;53334;51.976;20.144;2022-09-29T00:09:41;26.20;43.50
36652;DHT22;53334;51.976;20.144;2022-09-29T00:12:15;26.20;43.50
36652;DHT22;53334;51.976;20.144;2022-09-29T00:14:50;26.20;43.40
36652;DHT22;53334;51.976;20.144;2022-09-29T00:17:24;26.10;43.30
36652;DHT22;53334;51.976;20.144;2022-09-29T00:19:58;26.10;43.60
36652;DHT22;53334;51.976;20.144;2022-09-29T00:22:33;26.10;43.70
36652;DHT22;53334;51.976;20.144;2022-09-29T00:25:07;26.10;44.00
36652;DHT22;53334;51.976;20.144;2022-09-29T00:27:41;26.10;44.20
36652;DHT22;53334;51.976;20.144;2022-09-29T00:30:16;26.10;44.50
36652;DHT22;53334;51.976;20.144;2022-09-29T00:32:50;26.10;44.80
36652;DHT22;53334;51.976;20.144;2022-09-29T00:35:24;26.10;45.00
36652;DHT22;53334;51.976;20.144;2022-09-29T00:37:58;26.10;45.20
36652;DHT22;53334;51.976;20.144;2022-09-29T00:40:32;26.10;45.30
36652;DHT22;53334;51.976;20.144;2022-09-29T00:43:11;26.10;45.50
36652;DHT22;53334;51.976;20.144;2022-09-29T00:45:54;26.10;45.60
36652;DHT22;53334;51.976;20.144;2022-09-29T00:48:30;26.10;45.80
36652;DHT22;53334;51.976;20.144;2022-09-29T00:51:05;26.10;45.90
36652;DHT22;53334;51.976;20.144;2022-09-29T00:53:40;26.10;46.00
36652;DHT22;53334;51.976;20.144;2022-09-29T00:56:17;26.10;46.10
36652;DHT22;53334;51.976;20.144;2022-09-29T00:58:53;26.10;46.10
36652;DHT22;53334;51.976;20.144;2022-09-29T01:01:31;26.10;46.20
36652;DHT22;53334;51.976;20.144;2022-09-29T01:04:09;26.10;46.30
36652;DHT22;53334;51.976;20.144;2022-09-29T01:06:46;26.10;46.30
36652;DHT22;53334;51.976;20.144;2022-09-29T01:09:24;26.10;46.40
36652;DHT22;53334;51.976;20.144;2022-09-29T01:12:00;26.10;46.40
36652;DHT22;53334;51.976;20.144;2022-09-29T01:14:35;26.10;46.40
36652;DHT22;53334;51.976;20.144;2022-09-29T01:17:11;26.10;46.40
36652;DHT22;53334;51.976;20.144;2022-09-29T01:19:51;26.10;46.50
36652;DHT22;53334;51.976;20.144;2022-09-29T01:26:02;26.10;46.50
36652;DHT22;53334;51.976;20.144;2022-09-29T01:31:51;26.10;46.50
36652;DHT22;53334;51.976;20.144;2022-09-29T01:34:34;26.10;46.60
36652;DHT22;53334;51.976;20.144;2022-09-29T01:37:15;26.10;46.60
36652;DHT22;53334;51.976;20.144;2022-09-29T01:40:00;26.10;46.60
36652;DHT22;53334;51.976;20.144;2022-09-29T01:42:39;26.10;46.70
36652;DHT22;53334;51.976;20.144;2022-09-29T01:45:21;26.20;46.80
36652;DHT22;53334;51.976;20.144;2022-09-29T01:48:00;26.10;46.70
36652;DHT22;53334;51.976;20.144;2022-09-29T01:50:39;26.10;46.70
36652;DHT22;53334;51.976;20.144;2022-09-29T01:53:17;26.10;46.80
36652;DHT22;53334;51.976;20.144;2022-09-29T01:55:57;26.20;46.90
36652;DHT22;53334;51.976;20.144;2022-09-29T01:58:38;26.20;47.00
36652;DHT22;53334;51.976;20.144;2022-09-29T02:01:13;26.20;47.10
36652;DHT22;53334;51.976;20.144;2022-09-29T02:03:51;26.20;47.20
36652;DHT22;53334;51.976;20.144;2022-09-29T02:06:29;26.20;47.30
36652;DHT22;53334;51.976;20.144;2022-09-29T02:09:11;26.20;47.40
36652;DHT22;53334;51.976;20.144;2022-09-29T02:11:50;26.20;47.40
36652;DHT22;53334;51.976;20.144;2022-09-29T02:14:27;26.20;47.50
36652;DHT22;53334;51.976;20.144;2022-09-29T02:17:06;26.20;47.60
36652;DHT22;53334;51.976;20.144;2022-09-29T02:19:45;26.20;47.70
36652;DHT22;53334;51.976;20.144;2022-09-29T02:22:19;26.20;47.60
36652;DHT22;53334;51.976;20.144;2022-09-29T02:24:54;26.20;47.60
36652;DHT22;53334;51.976;20.144;2022-09-29T02:27:30;26.20;47.60
36652;DHT22;53334;51.976;20.144;2022-09-29T02:30:06;26.20;47.60
36652;DHT22;53334;51.976;20.144;2022-09-29T02:32:40;26.20;47.50
36652;DHT22;53334;51.976;20.144;2022-09-29T02:35:15;26.20;47.60
36652;DHT22;53334;51.976;20.144;2022-09-29T02:37:58;26.20;47.50
36652;DHT22;53334;51.976;20.144;2022-09-29T02:40:42;26.20;47.60
36652;DHT22;53334;51.976;20.144;2022-09-29T02:46:37;26.20;47.80
36652;DHT22;53334;51.976;20.144;2022-09-29T02:49:32;26.20;47.70
36652;DHT22;53334;51.976;20.144;2022-09-29T02:52:17;26.20;47.70
36652;DHT22;53334;51.976;20.144;2022-09-29T02:55:00;26.20;47.90
36652;DHT22;53334;51.976;20.144;2022-09-29T02:57:48;26.20;47.80
36652;DHT22;53334;51.976;20.144;2022-09-29T03:00:23;26.20;47.90
36652;DHT22;53334;51.976;20.144;2022-09-29T03:02:59;26.20;47.90
36652;DHT22;53334;51.976;20.144;2022-09-29T03:05:33;26.20;48.00
36652;DHT22;53334;51.976;20.144;2022-09-29T03:08:08;26.20;48.00
36652;DHT22;53334;51.976;20.144;2022-09-29T03:10:42;26.20;48.00
36652;DHT22;53334;51.976;20.144;2022-09-29T03:13:16;26.20;47.90
36652;DHT22;53334;51.976;20.144;2022-09-29T03:15:50;26.20;47.90
36652;DHT22;53334;51.976;20.144;2022-09-29T03:18:24;26.20;47.90
36652;DHT22;53334;51.976;20.144;2022-09-29T03:20:59;26.20;47.90
36652;DHT22;53334;51.976;20.144;2022-09-29T03:23:34;26.20;47.90
36652;DHT22;53334;51.976;20.144;2022-09-29T03:26:08;26.20;47.90
36652;DHT22;53334;51.976;20.144;2022-09-29T03:28:42;26.20;47.90
36652;DHT22;53334;51.976;20.144;2022-09-29T03:31:16;26.20;47.90
36652;DHT22;53334;51.976;20.144;2022-09-29T03:33:50;26.20;47.90
36652;DHT22;53334;51.976;20.144;2022-09-29T03:36:24;26.20;47.90
36652;DHT22;53334;51.976;20.144;2022-09-29T03:39:00;26.20;47.90
36652;DHT22;53334;51.976;20.144;2022-09-29T03:41:35;26.20;47.90
36652;DHT22;53334;51.976;20.144;2022-09-29T03:44:09;26.20;47.90
36652;DHT22;53334;51.976;20.144;2022-09-29T03:46:43;26.20;47.90
36652;DHT22;53334;51.976;20.144;2022-09-29T03:49:17;26.20;47.90
36652;DHT22;53334;51.976;20.144;2022-09-29T03:51:51;26.20;48.00
36652;DHT22;53334;51.976;20.144;2022-09-29T03:54:26;26.20;48.00
36652;DHT22;53334;51.976;20.144;2022-09-29T03:57:00;26.20;48.10
36652;DHT22;53334;51.976;20.144;2022-09-29T03:59:34;26.20;48.10
36652;DHT22;53334;51.976;20.144;2022-09-29T04:02:13;26.20;48.20
36652;DHT22;53334;51.976;20.144;2022-09-29T04:04:49;26.20;48.50
36652;DHT22;53334;51.976;20.144;2022-09-29T04:07:23;26.20;48.60
36652;DHT22;53334;51.976;20.144;2022-09-29T04:09:59;26.30;48.60
36652;DHT22;53334;51.976;20.144;2022-09-29T04:12:32;26.20;48.50
36652;DHT22;53334;51.976;20.144;2022-09-29T04:15:07;26.20;48.50
36652;DHT22;53334;51.976;20.144;2022-09-29T04:17:41;26.30;48.30
36652;DHT22;53334;51.976;20.144;2022-09-29T04:20:15;26.30;48.10
36652;DHT22;53334;51.976;20.144;2022-09-29T04:22:50;26.30;47.90
36652;DHT22;53334;51.976;20.144;2022-09-29T04:25:25;26.20;47.70
36652;DHT22;53334;51.976;20.144;2022-09-29T04:27:59;26.30;47.70
36652;DHT22;53334;51.976;20.144;2022-09-29T04:30:33;26.30;47.60
36652;DHT22;53334;51.976;20.144;2022-09-29T04:33:07;26.30;47.90
36652;DHT22;53334;51.976;20.144;2022-09-29T04:35:41;26.20;47.70
36652;DHT22;53334;51.976;20.144;2022-09-29T04:38:15;26.30;47.70
36652;DHT22;53334;51.976;20.144;2022-09-29T04:40:51;26.30;47.70
36652;DHT22;53334;51.976;20.144;2022-09-29T04:43:25;26.30;47.70
36652;DHT22;53334;51.976;20.144;2022-09-29T04:46:03;26.30;47.60
36652;DHT22;53334;51.976;20.144;2022-09-29T04:48:38;26.20;47.50
36652;DHT22;53334;51.976;20.144;2022-09-29T04:51:12;26.30;47.40
36652;DHT22;53334;51.976;20.144;2022-09-29T04:53:46;26.20;47.50
36652;DHT22;53334;51.976;20.144;2022-09-29T04:56:21;26.20;47.40
36652;DHT22;53334;51.976;20.144;2022-09-29T04:58:55;26.20;47.20
36652;DHT22;53334;51.976;20.144;2022-09-29T05:01:29;26.20;47.30
36652;DHT22;53334;51.976;20.144;2022-09-29T05:04:04;26.20;47.10
36652;DHT22;53334;51.976;20.144;2022-09-29T05:06:39;26.30;47.00
36652;DHT22;53334;51.976;20.144;2022-09-29T05:09:13;26.30;47.00
36652;DHT22;53334;51.976;20.144;2022-09-29T05:11:49;26.30;47.50
36652;DHT22;53334;51.976;20.144;2022-09-29T05:14:23;26.30;46.80
36652;DHT22;53334;51.976;20.144;2022-09-29T05:16:57;26.30;46.80
36652;DHT22;53334;51.976;20.144;2022-09-29T05:19:31;26.30;46.80
36652;DHT22;53334;51.976;20.144;2022-09-29T05:22:05;26.30;46.90
36652;DHT22;53334;51.976;20.144;2022-09-29T05:24:39;26.30;46.90
36652;DHT22;53334;51.976;20.144;2022-09-29T05:27:15;26.30;46.90
36652;DHT22;53334;51.976;20.144;2022-09-29T05:29:49;26.30;47.00
36652;DHT22;53334;51.976;20.144;2022-09-29T05:32:23;26.30;46.90
36652;DHT22;53334;51.976;20.144;2022-09-29T05:34:57;26.30;46.80
36652;DHT22;53334;51.976;20.144;2022-09-29T05:37:31;26.30;46.80
36652;DHT22;53334;51.976;20.144;2022-09-29T05:40:06;26.30;46.90
36652;DHT22;53334;51.976;20.144;2022-09-29T05:42:43;26.30;47.10
36652;DHT22;53334;51.976;20.144;2022-09-29T05:45:17;26.30;47.30
36652;DHT22;53334;51.976;20.144;2022-09-29T05:47:51;26.40;47.50
36652;DHT22;53334;51.976;20.144;2022-09-29T05:50:26;26.40;47.50
36652;DHT22;53334;51.976;20.144;2022-09-29T05:53:02;26.40;47.30
36652;DHT22;53334;51.976;20.144;2022-09-29T05:55:36;26.40;47.10
36652;DHT22;53334;51.976;20.144;2022-09-29T05:58:12;26.40;47.00
36652;DHT22;53334;51.976;20.144;2022-09-29T06:00:46;26.40;47.00
36652;DHT22;53334;51.976;20.144;2022-09-29T06:03:20;26.40;46.80
36652;DHT22;53334;51.976;20.144;2022-09-29T06:05:54;26.40;46.60
36652;DHT22;53334;51.976;20.144;2022-09-29T06:08:28;26.40;46.60
36652;DHT22;53334;51.976;20.144;2022-09-29T06:11:03;26.40;46.40
36652;DHT22;53334;51.976;20.144;2022-09-29T06:13:39;26.40;46.20
36652;DHT22;53334;51.976;20.144;2022-09-29T06:16:15;26.30;45.90
36652;DHT22;53334;51.976;20.144;2022-09-29T06:18:50;26.40;46.40
36652;DHT22;53334;51.976;20.144;2022-09-29T06:21:26;26.30;45.70
36652;DHT22;53334;51.976;20.144;2022-09-29T06:24:00;26.30;45.60
36652;DHT22;53334;51.976;20.144;2022-09-29T06:26:34;26.30;45.50
36652;DHT22;53334;51.976;20.144;2022-09-29T06:29:10;26.30;45.40
36652;DHT22;53334;51.976;20.144;2022-09-29T06:31:44;26.30;42.40
36652;DHT22;53334;51.976;20.144;2022-09-29T06:34:18;26.30;40.50
36652;DHT22;53334;51.976;20.144;2022-09-29T06:36:53;26.20;38.90
36652;DHT22;53334;51.976;20.144;2022-09-29T06:39:47;26.20;39.00
36652;DHT22;53334;51.976;20.144;2022-09-29T06:42:21;26.10;39.30
36652;DHT22;53334;51.976;20.144;2022-09-29T06:44:57;26.10;39.50
36652;DHT22;53334;51.976;20.144;2022-09-29T06:47:31;26.10;40.00
36652;DHT22;53334;51.976;20.144;2022-09-29T06:50:05;26.10;40.10
36652;DHT22;53334;51.976;20.144;2022-09-29T06:52:48;26.10;40.00
36652;DHT22;53334;51.976;20.144;2022-09-29T06:55:35;26.10;40.10
36652;DHT22;53334;51.976;20.144;2022-09-29T06:58:09;26.10;40.10
36652;DHT22;53334;51.976;20.144;2022-09-29T07:00:44;26.00;40.30
36652;DHT22;53334;51.976;20.144;2022-09-29T07:03:22;26.00;41.20
36652;DHT22;53334;51.976;20.144;2022-09-29T07:05:59;26.00;40.90
36652;DHT22;53334;51.976;20.144;2022-09-29T07:08:53;26.00;40.90
36652;DHT22;53334;51.976;20.144;2022-09-29T07:11:27;26.10;41.20
36652;DHT22;53334;51.976;20.144;2022-09-29T07:14:01;26.10;41.50
36652;DHT22;53334;51.976;20.144;2022-09-29T07:16:37;26.10;41.30
36652;DHT22;53334;51.976;20.144;2022-09-29T07:19:11;26.10;41.30
36652;DHT22;53334;51.976;20.144;2022-09-29T07:21:45;26.10;42.00
36652;DHT22;53334;51.976;20.144;2022-09-29T07:24:20;26.10;41.90
36652;DHT22;53334;51.976;20.144;2022-09-29T07:26:55;26.10;41.60
36652;DHT22;53334;51.976;20.144;2022-09-29T07:29:29;26.10;41.70
36652;DHT22;53334;51.976;20.144;2022-09-29T07:32:06;26.10;41.80
36652;DHT22;53334;51.976;20.144;2022-09-29T07:34:53;26.10;41.60
36652;DHT22;53334;51.976;20.144;2022-09-29T07:37:27;26.10;41.30
36652;DHT22;53334;51.976;20.144;2022-09-29T07:40:02;26.10;41.10
36652;DHT22;53334;51.976;20.144;2022-09-29T07:42:36;26.10;41.20
36652;DHT22;53334;51.976;20.144;2022-09-29T07:45:10;26.10;40.70
36652;DHT22;53334;51.976;20.144;2022-09-29T07:47:45;26.10;40.10
36652;DHT22;53334;51.976;20.144;2022-09-29T07:50:19;26.10;39.90
36652;DHT22;53334;51.976;20.144;2022-09-29T07:52:53;26.10;40.20
36652;DHT22;53334;51.976;20.144;2022-09-29T07:55:28;26.10;40.20
36652;DHT22;53334;51.976;20.144;2022-09-29T07:58:02;26.10;40.10
36652;DHT22;53334;51.976;20.144;2022-09-29T08:00:36;26.10;40.10
36652;DHT22;53334;51.976;20.144;2022-09-29T08:03:11;26.20;40.60
36652;DHT22;53334;51.976;20.144;2022-09-29T08:05:45;26.10;40.20
36652;DHT22;53334;51.976;20.144;2022-09-29T08:08:20;26.10;40.40
36652;DHT22;53334;51.976;20.144;2022-09-29T08:11:01;26.20;40.40
36652;DHT22;53334;51.976;20.144;2022-09-29T08:13:35;26.20;40.80
36652;DHT22;53334;51.976;20.144;2022-09-29T08:16:12;26.20;40.70
36652;DHT22;53334;51.976;20.144;2022-09-29T08:18:48;26.20;40.90
36652;DHT22;53334;51.976;20.144;2022-09-29T08:21:22;26.20;41.10
36652;DHT22;53334;51.976;20.144;2022-09-29T08:23:56;26.30;41.30
36652;DHT22;53334;51.976;20.144;2022-09-29T08:26:33;26.30;41.40
36652;DHT22;53334;51.976;20.144;2022-09-29T08:29:15;26.30;41.40
36652;DHT22;53334;51.976;20.144;2022-09-29T08:31:49;26.30;41.40
36652;DHT22;53334;51.976;20.144;2022-09-29T08:34:24;26.30;40.60
36652;DHT22;53334;51.976;20.144;2022-09-29T08:36:58;26.30;38.80
36652;DHT22;53334;51.976;20.144;2022-09-29T08:39:34;26.30;39.00
36652;DHT22;53334;51.976;20.144;2022-09-29T08:42:17;26.20;38.40
36652;DHT22;53334;51.976;20.144;2022-09-29T08:44:56;26.20;37.60
36652;DHT22;53334;51.976;20.144;2022-09-29T08:47:48;26.20;37.80
36652;DHT22;53334;51.976;20.144;2022-09-29T08:50:28;26.10;37.60
36652;DHT22;53334;51.976;20.144;2022-09-29T08:53:07;26.10;37.60
36652;DHT22;53334;51.976;20.144;2022-09-29T08:56:01;26.10;37.40
36652;DHT22;53334;51.976;20.144;2022-09-29T08:58:37;26.10;37.50
36652;DHT22;53334;51.976;20.144;2022-09-29T09:01:20;26.10;37.30
36652;DHT22;53334;51.976;20.144;2022-09-29T09:04:26;26.00;37.00
36652;DHT22;53334;51.976;20.144;2022-09-29T09:07:09;26.00;36.90
36652;DHT22;53334;51.976;20.144;2022-09-29T09:09:56;26.00;36.90
36652;DHT22;53334;51.976;20.144;2022-09-29T09:15:54;26.00;36.80
36652;DHT22;53334;51.976;20.144;2022-09-29T09:18:46;26.00;36.60
36652;DHT22;53334;51.976;20.144;2022-09-29T09:21:30;26.00;36.60
36652;DHT22;53334;51.976;20.144;2022-09-29T09:24:15;26.00;36.60
36652;DHT22;53334;51.976;20.144;2022-09-29T09:26:55;26.00;36.50
36652;DHT22;53334;51.976;20.144;2022-09-29T09:29:34;26.00;36.60
36652;DHT22;53334;51.976;20.144;2022-09-29T09:32:35;26.00;36.70
36652;DHT22;53334;51.976;20.144;2022-09-29T09:35:23;26.00;36.60
36652;DHT22;53334;51.976;20.144;2022-09-29T09:38:02;26.00;36.70
36652;DHT22;53334;51.976;20.144;2022-09-29T09:40:40;26.00;36.70
36652;DHT22;53334;51.976;20.144;2022-09-29T09:43:19;26.00;36.70
36652;DHT22;53334;51.976;20.144;2022-09-29T09:45:58;26.00;36.90
36652;DHT22;53334;51.976;20.144;2022-09-29T09:48:36;26.00;37.00
36652;DHT22;53334;51.976;20.144;2022-09-29T09:51:25;26.00;37.60
36652;DHT22;53334;51.976;20.144;2022-09-29T09:54:03;26.10;37.10
36652;DHT22;53334;51.976;20.144;2022-09-29T09:56:54;26.10;37.10
36652;DHT22;53334;51.976;20.144;2022-09-29T10:02:45;26.10;37.50
36652;DHT22;53334;51.976;20.144;2022-09-29T10:05:21;26.00;37.30
36652;DHT22;53334;51.976;20.144;2022-09-29T10:07:57;26.10;37.30
36652;DHT22;53334;51.976;20.144;2022-09-29T10:10:31;26.10;37.40
36652;DHT22;53334;51.976;20.144;2022-09-29T10:13:09;26.10;37.30
36652;DHT22;53334;51.976;20.144;2022-09-29T10:15:47;26.10;37.20
36652;DHT22;53334;51.976;20.144;2022-09-29T10:18:27;26.10;37.20
36652;DHT22;53334;51.976;20.144;2022-09-29T10:21:02;26.20;37.30
36652;DHT22;53334;51.976;20.144;2022-09-29T10:23:36;26.20;37.30
36652;DHT22;53334;51.976;20.144;2022-09-29T10:26:14;26.20;37.30
36652;DHT22;53334;51.976;20.144;2022-09-29T10:28:54;26.20;37.30
36652;DHT22;53334;51.976;20.144;2022-09-29T10:31:31;26.20;37.40
36652;DHT22;53334;51.976;20.144;2022-09-29T10:34:15;26.10;37.30
36652;DHT22;53334;51.976;20.144;2022-09-29T10:36:51;26.20;37.80
36652;DHT22;53334;51.976;20.144;2022-09-29T10:39:33;26.10;37.80
36652;DHT22;53334;51.976;20.144;2022-09-29T10:42:20;26.10;38.30
36652;DHT22;53334;51.976;20.144;2022-09-29T10:45:01;26.10;38.80
36652;DHT22;53334;51.976;20.144;2022-09-29T10:47:45;26.10;38.90
36652;DHT22;53334;51.976;20.144;2022-09-29T10:50:21;26.10;39.10
36652;DHT22;53334;51.976;20.144;2022-09-29T10:52:57;26.10;39.10
36652;DHT22;53334;51.976;20.144;2022-09-29T10:55:34;26.10;39.20
36652;DHT22;53334;51.976;20.144;2022-09-29T10:58:19;26.10;39.10
36652;DHT22;53334;51.976;20.144;2022-09-29T11:01:17;26.10;39.20
36652;DHT22;53334;51.976;20.144;2022-09-29T11:03:54;26.10;39.00
36652;DHT22;53334;51.976;20.144;2022-09-29T11:06:34;26.10;38.90
36652;DHT22;53334;51.976;20.144;2022-09-29T11:09:29;26.10;38.60
36652;DHT22;53334;51.976;20.144;2022-09-29T11:12:30;26.10;38.40
36652;DHT22;53334;51.976;20.144;2022-09-29T11:15:22;26.10;38.70
36652;DHT22;53334;51.976;20.144;2022-09-29T11:17:58;26.10;38.60
36652;DHT22;53334;51.976;20.144;2022-09-29T11:20:33;26.10;38.40
36652;DHT22;53334;51.976;20.144;2022-09-29T11:23:17;26.10;38.40
36652;DHT22;53334;51.976;20.144;2022-09-29T11:26:07;26.10;38.20
36652;DHT22;53334;51.976;20.144;2022-09-29T11:29:12;26.10;38.30
36652;DHT22;53334;51.976;20.144;2022-09-29T11:32:01;26.10;38.60
36652;DHT22;53334;51.976;20.144;2022-09-29T11:35:09;26.10;38.20
36652;DHT22;53334;51.976;20.144;2022-09-29T11:38:08;26.10;38.30
36652;DHT22;53334;51.976;20.144;2022-09-29T11:40:57;26.10;38.20
36652;DHT22;53334;51.976;20.144;2022-09-29T11:43:43;26.10;38.50
36652;DHT22;53334;51.976;20.144;2022-09-29T11:46:32;26.10;38.20
36652;DHT22;53334;51.976;20.144;2022-09-29T11:49:21;26.10;38.10
36652;DHT22;53334;51.976;20.144;2022-09-29T11:52:09;26.10;38.30
36652;DHT22;53334;51.976;20.144;2022-09-29T11:54:58;26.10;37.80
36652;DHT22;53334;51.976;20.144;2022-09-29T11:57:49;26.10;38.00
36652;DHT22;53334;51.976;20.144;2022-09-29T12:00:41;26.10;38.50
36652;DHT22;53334;51.976;20.144;2022-09-29T12:03:26;26.10;39.10
36652;DHT22;53334;51.976;20.144;2022-09-29T12:06:26;26.10;39.00
36652;DHT22;53334;51.976;20.144;2022-09-29T12:09:16;26.10;39.70
36652;DHT22;53334;51.976;20.144;2022-09-29T12:11:59;26.10;39.40
36652;DHT22;53334;51.976;20.144;2022-09-29T12:15:25;26.10;39.50
36652;DHT22;53334;51.976;20.144;2022-09-29T12:18:07;26.10;39.90
36652;DHT22;53334;51.976;20.144;2022-09-29T12:20:46;26.10;39.80
36652;DHT22;53334;51.976;20.144;2022-09-29T12:23:24;26.10;40.00
36652;DHT22;53334;51.976;20.144;2022-09-29T12:26:07;26.20;40.30
36652;DHT22;53334;51.976;20.144;2022-09-29T12:28:46;26.10;40.40
36652;DHT22;53334;51.976;20.144;2022-09-29T12:31:24;26.20;40.40
36652;DHT22;53334;51.976;20.144;2022-09-29T12:34:03;26.20;40.40
36652;DHT22;53334;51.976;20.144;2022-09-29T12:36:44;26.20;40.50
36652;DHT22;53334;51.976;20.144;2022-09-29T12:39:38;26.20;40.70
36652;DHT22;53334;51.976;20.144;2022-09-29T12:42:25;26.20;40.80
36652;DHT22;53334;51.976;20.144;2022-09-29T12:45:05;26.20;40.80
36652;DHT22;53334;51.976;20.144;2022-09-29T12:47:52;26.20;40.80
36652;DHT22;53334;51.976;20.144;2022-09-29T12:50:29;26.20;40.80
36652;DHT22;53334;51.976;20.144;2022-09-29T12:53:11;26.20;40.60
36652;DHT22;53334;51.976;20.144;2022-09-29T12:55:54;26.20;40.70
36652;DHT22;53334;51.976;20.144;2022-09-29T12:58:37;26.20;40.80
36652;DHT22;53334;51.976;20.144;2022-09-29T13:01:20;26.20;40.80
36652;DHT22;53334;51.976;20.144;2022-09-29T13:04:24;26.20;40.90
36652;DHT22;53334;51.976;20.144;2022-09-29T13:07:48;26.20;40.90
36652;DHT22;53334;51.976;20.144;2022-09-29T13:10:49;26.20;40.80
36652;DHT22;53334;51.976;20.144;2022-09-29T13:16:58;26.10;41.30
36652;DHT22;53334;51.976;20.144;2022-09-29T13:19:54;26.10;40.90
36652;DHT22;53334;51.976;20.144;2022-09-29T13:22:43;26.10;41.10
36652;DHT22;53334;51.976;20.144;2022-09-29T13:25:22;26.10;40.90
36652;DHT22;53334;51.976;20.144;2022-09-29T13:28:00;26.10;40.80
36652;DHT22;53334;51.976;20.144;2022-09-29T13:30:37;26.10;40.90
36652;DHT22;53334;51.976;20.144;2022-09-29T13:33:16;26.10;40.80
36652;DHT22;53334;51.976;20.144;2022-09-29T13:35:53;26.10;41.00
36652;DHT22;53334;51.976;20.144;2022-09-29T13:38:29;26.10;41.10
36652;DHT22;53334;51.976;20.144;2022-09-29T13:41:12;26.10;41.20
36652;DHT22;53334;51.976;20.144;2022-09-29T13:44:05;26.10;41.60
36652;DHT22;53334;51.976;20.144;2022-09-29T13:46:41;26.10;41.70
36652;DHT22;53334;51.976;20.144;2022-09-29T13:49:26;26.10;41.80
36652;DHT22;53334;51.976;20.144;2022-09-29T13:52:28;26.10;42.10
36652;DHT22;53334;51.976;20.144;2022-09-29T13:58:20;26.10;42.30
36652;DHT22;53334;51.976;20.144;2022-09-29T14:00:58;26.10;42.30
36652;DHT22;53334;51.976;20.144;2022-09-29T14:03:36;26.10;42.20
36652;DHT22;53334;51.976;20.144;2022-09-29T14:06:14;26.10;42.40
36652;DHT22;53334;51.976;20.144;2022-09-29T14:09:14;26.20;42.70
36652;DHT22;53334;51.976;20.144;2022-09-29T14:11:51;26.20;42.70
36652;DHT22;53334;51.976;20.144;2022-09-29T14:14:29;26.20;42.80
36652;DHT22;53334;51.976;20.144;2022-09-29T14:17:08;26.20;42.80
36652;DHT22;53334;51.976;20.144;2022-09-29T14:19:52;26.10;42.90
36652;DHT22;53334;51.976;20.144;2022-09-29T14:25:51;26.20;43.30
36652;DHT22;53334;51.976;20.144;2022-09-29T14:28:37;26.10;43.20
36652;DHT22;53334;51.976;20.144;2022-09-29T14:31:19;26.20;43.20
36652;DHT22;53334;51.976;20.144;2022-09-29T14:33:54;26.20;43.10
36652;DHT22;53334;51.976;20.144;2022-09-29T14:36:32;26.10;43.00
36652;DHT22;53334;51.976;20.144;2022-09-29T14:39:09;26.20;43.00
36652;DHT22;53334;51.976;20.144;2022-09-29T14:41:58;26.10;42.90
36652;DHT22;53334;51.976;20.144;2022-09-29T14:44:36;26.10;42.90
36652;DHT22;53334;51.976;20.144;2022-09-29T14:47:33;26.10;42.90
36652;DHT22;53334;51.976;20.144;2022-09-29T14:50:38;26.10;42.90
36652;DHT22;53334;51.976;20.144;2022-09-29T14:53:44;26.10;42.60
36652;DHT22;53334;51.976;20.144;2022-09-29T14:56:40;26.10;42.50
36652;DHT22;53334;51.976;20.144;2022-09-29T14:59:30;26.10;42.70
36652;DHT22;53334;51.976;20.144;2022-09-29T15:02:17;26.10;42.60
36652;DHT22;53334;51.976;20.144;2022-09-29T15:04:52;26.10;42.60
36652;DHT22;53334;51.976;20.144;2022-09-29T15:07:27;26.10;42.60
36652;DHT22;53334;51.976;20.144;2022-09-29T15:14:34;26.10;42.40
36652;DHT22;53334;51.976;20.144;2022-09-29T15:17:18;26.00;42.00
36652;DHT22;53334;51.976;20.144;2022-09-29T15:19:59;26.00;41.50
36652;DHT22;53334;51.976;20.144;2022-09-29T15:25:41;26.00;41.60
36652;DHT22;53334;51.976;20.144;2022-09-29T15:28:18;26.00;41.40
36652;DHT22;53334;51.976;20.144;2022-09-29T15:31:05;26.00;41.40
36652;DHT22;53334;51.976;20.144;2022-09-29T15:33:40;26.00;41.80
36652;DHT22;53334;51.976;20.144;2022-09-29T15:36:18;26.00;41.30
36652;DHT22;53334;51.976;20.144;2022-09-29T15:38:55;26.00;41.10
36652;DHT22;53334;51.976;20.144;2022-09-29T15:41:33;26.00;41.10
36652;DHT22;53334;51.976;20.144;2022-09-29T15:44:12;26.00;41.20
36652;DHT22;53334;51.976;20.144;2022-09-29T15:46:55;26.10;41.50
36652;DHT22;53334;51.976;20.144;2022-09-29T15:49:30;26.00;41.30
36652;DHT22;53334;51.976;20.144;2022-09-29T15:52:06;26.00;40.80
36652;DHT22;53334;51.976;20.144;2022-09-29T15:54:43;26.00;40.50
36652;DHT22;53334;51.976;20.144;2022-09-29T15:57:28;26.00;40.40
36652;DHT22;53334;51.976;20.144;2022-09-29T16:00:55;26.00;40.10
36652;DHT22;53334;51.976;20.144;2022-09-29T16:03:36;26.00;40.50
36652;DHT22;53334;51.976;20.144;2022-09-29T16:06:22;26.00;40.20
36652;DHT22;53334;51.976;20.144;2022-09-29T16:09:01;26.00;40.10
36652;DHT22;53334;51.976;20.144;2022-09-29T16:11:37;26.00;40.10
36652;DHT22;53334;51.976;20.144;2022-09-29T16:14:19;25.90;40.00
36652;DHT22;53334;51.976;20.144;2022-09-29T16:16:54;25.90;40.00
36652;DHT22;53334;51.976;20.144;2022-09-29T16:19:31;25.90;40.00
36652;DHT22;53334;51.976;20.144;2022-09-29T16:22:06;25.90;39.90
36652;DHT22;53334;51.976;20.144;2022-09-29T16:25:07;25.90;39.80
36652;DHT22;53334;51.976;20.144;2022-09-29T16:27:50;25.90;39.80
36652;DHT22;53334;51.976;20.144;2022-09-29T16:30:27;25.90;39.80
36652;DHT22;53334;51.976;20.144;2022-09-29T16:33:05;25.90;40.20
36652;DHT22;53334;51.976;20.144;2022-09-29T16:35:55;25.90;39.90
36652;DHT22;53334;51.976;20.144;2022-09-29T16:38:35;25.90;40.00
36652;DHT22;53334;51.976;20.144;2022-09-29T16:41:22;25.90;40.10
36652;DHT22;53334;51.976;20.144;2022-09-29T16:44:03;25.90;40.60
36652;DHT22;53334;51.976;20.144;2022-09-29T16:46:44;25.90;40.90
36652;DHT22;53334;51.976;20.144;2022-09-29T16:49:20;25.90;40.30
36652;DHT22;53334;51.976;20.144;2022-09-29T16:52:00;25.90;40.60
36652;DHT22;53334;51.976;20.144;2022-09-29T16:54:39;25.90;40.80
36652;DHT22;53334;51.976;20.144;2022-09-29T16:57:19;25.90;40.90
36652;DHT22;53334;51.976;20.144;2022-09-29T16:59:55;25.90;41.20
36652;DHT22;53334;51.976;20.144;2022-09-29T17:02:29;25.90;41.70
36652;DHT22;53334;51.976;20.144;2022-09-29T17:05:04;26.00;42.10
36652;DHT22;53334;51.976;20.144;2022-09-29T17:07:40;26.00;42.40